PVG9AG EGCC-EGGW
Flight info
| Callsign | PVG9AG |
|---|---|
| Flight time | 0h 26m |
| Altitude | 19000 |
| Route | LISTO L612 HON L15 FINMA |
| Aircraft | A321/M-SDE3FGHIRWY/LB1 |
Departure
| Time | 2026-04-30 20:09 |
|---|---|
| Airport | Manchester Airport (EGCC) |
Arrival
| Time | 2026-04-30 20:35 |
|---|---|
| Airport | London Luton Airport (EGGW) |
| Time | Latitude | Longitude | Altitude | Speed | Heading |
|---|---|---|---|---|---|
| 2026-04-30 19:50 | 53.36212 | -2.26480 | 263 ft | 0 kts | 322° |
| 2026-04-30 20:01 | 53.36211 | -2.26479 | 263 ft | 1 kts | 322° |
| 2026-04-30 20:01 | 53.36200 | -2.26464 | 263 ft | 2 kts | 322° |
| 2026-04-30 20:01 | 53.36188 | -2.26449 | 264 ft | 2 kts | 322° |
| 2026-04-30 20:02 | 53.36173 | -2.26423 | 264 ft | 1 kts | 273° |
| 2026-04-30 20:02 | 53.36175 | -2.26406 | 264 ft | 1 kts | 232° |
| 2026-04-30 20:03 | 53.36139 | -2.26485 | 265 ft | 7 kts | 232° |
| 2026-04-30 20:03 | 53.36106 | -2.26556 | 265 ft | 7 kts | 232° |
| 2026-04-30 20:03 | 53.36076 | -2.26630 | 266 ft | 7 kts | 238° |
| 2026-04-30 20:03 | 53.36047 | -2.26706 | 267 ft | 7 kts | 233° |
| 2026-04-30 20:04 | 53.36013 | -2.26776 | 267 ft | 7 kts | 231° |
| 2026-04-30 20:04 | 53.35992 | -2.26817 | 268 ft | 2 kts | 231° |
| 2026-04-30 20:04 | 53.35984 | -2.26831 | 268 ft | 4 kts | 221° |
| 2026-04-30 20:05 | 53.35947 | -2.26849 | 267 ft | 0 kts | 177° |
| 2026-04-30 20:06 | 53.35946 | -2.26849 | 267 ft | 1 kts | 177° |
| 2026-04-30 20:06 | 53.35920 | -2.26846 | 267 ft | 6 kts | 177° |
| 2026-04-30 20:06 | 53.35871 | -2.26891 | 266 ft | 11 kts | 232° |
| 2026-04-30 20:06 | 53.35799 | -2.27081 | 261 ft | 28 kts | 233° |
| 2026-04-30 20:07 | 53.35667 | -2.27355 | 248 ft | 28 kts | 232° |
| 2026-04-30 20:07 | 53.35542 | -2.27610 | 243 ft | 28 kts | 230° |
| 2026-04-30 20:07 | 53.35347 | -2.28099 | 236 ft | 22 kts | 224° |
| 2026-04-30 20:08 | 53.35248 | -2.28190 | 235 ft | 15 kts | 187° |
| 2026-04-30 20:08 | 53.35146 | -2.28198 | 234 ft | 14 kts | 165° |
| 2026-04-30 20:08 | 53.35077 | -2.28118 | 234 ft | 5 kts | 109° |
| 2026-04-30 20:08 | 53.35102 | -2.28053 | 234 ft | 10 kts | 49° |
| 2026-04-30 20:09 | 53.35302 | -2.27639 | 242 ft | 82 kts | 51° |
| 2026-04-30 20:09 | 53.35795 | -2.26620 | 269 ft | 142 kts | 52° |
| 2026-04-30 20:09 | 53.37194 | -2.23673 | 1162 ft | 173 kts | 60° |
| 2026-04-30 20:10 | 53.36942 | -2.19958 | 2404 ft | 179 kts | 134° |
| 2026-04-30 20:10 | 53.36006 | -2.18542 | 3095 ft | 191 kts | 142° |
| 2026-04-30 20:10 | 53.34839 | -2.17305 | 3672 ft | 210 kts | 159° |
| 2026-04-30 20:11 | 53.31683 | -2.17163 | 4819 ft | 246 kts | 182° |
| 2026-04-30 20:11 | 53.29973 | -2.17440 | 5149 ft | 250 kts | 183° |
| 2026-04-30 20:11 | 53.28236 | -2.17725 | 5197 ft | 251 kts | 183° |
| 2026-04-30 20:12 | 53.24774 | -2.18281 | 5217 ft | 251 kts | 183° |
| 2026-04-30 20:12 | 53.23038 | -2.18552 | 5214 ft | 251 kts | 183° |
| 2026-04-30 20:12 | 53.21303 | -2.18822 | 5215 ft | 252 kts | 183° |
| 2026-04-30 20:13 | 53.19515 | -2.19097 | 5542 ft | 259 kts | 183° |
| 2026-04-30 20:13 | 53.17744 | -2.19368 | 6390 ft | 260 kts | 183° |
| 2026-04-30 20:13 | 53.15967 | -2.19637 | 7222 ft | 261 kts | 182° |
| 2026-04-30 20:13 | 53.14150 | -2.19497 | 8020 ft | 262 kts | 169° |
| 2026-04-30 20:14 | 53.12432 | -2.18632 | 8791 ft | 264 kts | 159° |
| 2026-04-30 20:14 | 53.10725 | -2.17471 | 9536 ft | 267 kts | 158° |
| 2026-04-30 20:14 | 53.09024 | -2.16285 | 10236 ft | 270 kts | 157° |
| 2026-04-30 20:14 | 53.07331 | -2.14839 | 10782 ft | 280 kts | 149° |
| 2026-04-30 20:15 | 53.05650 | -2.13071 | 11098 ft | 297 kts | 148° |
| 2026-04-30 20:15 | 53.03860 | -2.11142 | 11402 ft | 313 kts | 148° |
| 2026-04-30 20:15 | 53.02009 | -2.09164 | 11690 ft | 329 kts | 148° |
| 2026-04-30 20:15 | 53.00016 | -2.07056 | 11968 ft | 344 kts | 148° |
| 2026-04-30 20:16 | 52.97956 | -2.04893 | 12258 ft | 358 kts | 148° |
| 2026-04-30 20:16 | 52.95834 | -2.02679 | 12776 ft | 364 kts | 148° |
| 2026-04-30 20:16 | 52.93704 | -2.00463 | 13396 ft | 366 kts | 148° |
| 2026-04-30 20:16 | 52.91544 | -1.98223 | 14029 ft | 368 kts | 148° |
| 2026-04-30 20:17 | 52.89372 | -1.95975 | 14627 ft | 370 kts | 148° |
| 2026-04-30 20:17 | 52.87188 | -1.93717 | 15190 ft | 374 kts | 148° |
| 2026-04-30 20:17 | 52.84993 | -1.91420 | 15727 ft | 377 kts | 146° |
| 2026-04-30 20:17 | 52.83079 | -1.88444 | 16237 ft | 382 kts | 131° |
| 2026-04-30 20:18 | 52.81433 | -1.84998 | 16819 ft | 384 kts | 129° |
| 2026-04-30 20:18 | 52.79816 | -1.81505 | 17327 ft | 388 kts | 129° |
| 2026-04-30 20:18 | 52.78164 | -1.77973 | 17778 ft | 392 kts | 129° |
| 2026-04-30 20:18 | 52.76475 | -1.74417 | 18241 ft | 395 kts | 130° |
| 2026-04-30 20:19 | 52.74782 | -1.70890 | 18746 ft | 397 kts | 130° |
| 2026-04-30 20:19 | 52.73632 | -1.68512 | 19018 ft | 399 kts | 130° |
| 2026-04-30 20:19 | 52.71315 | -1.63748 | 19210 ft | 400 kts | 130° |
| 2026-04-30 20:19 | 52.69579 | -1.60197 | 19215 ft | 399 kts | 130° |
| 2026-04-30 20:20 | 52.67836 | -1.56642 | 19210 ft | 399 kts | 130° |
| 2026-04-30 20:20 | 52.66112 | -1.53135 | 19214 ft | 399 kts | 130° |
| 2026-04-30 20:20 | 52.64364 | -1.49584 | 19217 ft | 399 kts | 130° |
| 2026-04-30 20:20 | 52.62609 | -1.46027 | 19214 ft | 399 kts | 130° |
| 2026-04-30 20:21 | 52.60879 | -1.42524 | 19216 ft | 399 kts | 130° |
| 2026-04-30 20:21 | 52.59133 | -1.38995 | 19231 ft | 400 kts | 130° |
| 2026-04-30 20:21 | 52.57360 | -1.35417 | 19208 ft | 400 kts | 130° |
| 2026-04-30 20:21 | 52.55591 | -1.31855 | 19245 ft | 400 kts | 131° |
| 2026-04-30 20:22 | 52.53857 | -1.28365 | 19232 ft | 400 kts | 131° |
| 2026-04-30 20:22 | 52.52087 | -1.24809 | 19244 ft | 401 kts | 131° |
| 2026-04-30 20:22 | 52.50337 | -1.21296 | 19228 ft | 401 kts | 131° |
| 2026-04-30 20:22 | 52.48564 | -1.17742 | 19224 ft | 401 kts | 131° |
| 2026-04-30 20:23 | 52.46809 | -1.14229 | 19218 ft | 401 kts | 131° |
| 2026-04-30 20:23 | 52.45044 | -1.10703 | 19219 ft | 401 kts | 131° |
| 2026-04-30 20:23 | 52.43277 | -1.07179 | 19214 ft | 401 kts | 131° |
| 2026-04-30 20:23 | 52.41513 | -1.03665 | 19210 ft | 400 kts | 131° |
| 2026-04-30 20:24 | 52.39782 | -1.00218 | 18878 ft | 386 kts | 131° |
| 2026-04-30 20:24 | 52.38102 | -0.96876 | 17736 ft | 383 kts | 130° |
| 2026-04-30 20:24 | 52.36429 | -0.93562 | 16242 ft | 386 kts | 130° |
| 2026-04-30 20:24 | 52.34628 | -0.90381 | 14730 ft | 385 kts | 141° |
| 2026-04-30 20:25 | 52.29917 | -0.86610 | 11959 ft | 375 kts | 156° |
| 2026-04-30 20:25 | 52.27595 | -0.84938 | 10689 ft | 369 kts | 155° |
| 2026-04-30 20:26 | 52.23155 | -0.81637 | 9442 ft | 336 kts | 155° |
| 2026-04-30 20:26 | 52.19027 | -0.78519 | 8707 ft | 319 kts | 154° |
| 2026-04-30 20:26 | 52.17092 | -0.77056 | 8202 ft | 305 kts | 154° |
| 2026-04-30 20:27 | 52.13441 | -0.74291 | 7270 ft | 273 kts | 154° |
| 2026-04-30 20:27 | 52.10106 | -0.71758 | 6480 ft | 263 kts | 154° |
| 2026-04-30 20:28 | 52.06878 | -0.69309 | 5814 ft | 245 kts | 154° |
| 2026-04-30 20:28 | 52.03920 | -0.67068 | 5002 ft | 226 kts | 154° |
| 2026-04-30 20:29 | 52.01160 | -0.65057 | 4476 ft | 213 kts | 163° |
| 2026-04-30 20:30 | 51.97025 | -0.64987 | 3812 ft | 195 kts | 144° |
| 2026-04-30 20:30 | 51.93668 | -0.61405 | 2985 ft | 191 kts | 147° |
| 2026-04-30 20:31 | 51.90295 | -0.58059 | 2167 ft | 189 kts | 147° |
| 2026-04-30 20:32 | 51.86926 | -0.54753 | 1992 ft | 190 kts | 147° |
| 2026-04-30 20:32 | 51.85393 | -0.51709 | 2035 ft | 170 kts | 102° |
| 2026-04-30 20:33 | 51.85393 | -0.49902 | 1940 ft | 155 kts | 90° |
| 2026-04-30 20:33 | 51.85771 | -0.46756 | 1468 ft | 133 kts | 82° |
| 2026-04-30 20:33 | 51.86021 | -0.45294 | 1414 ft | 139 kts | 80° |
| 2026-04-30 20:34 | 51.86486 | -0.42467 | 1030 ft | 127 kts | 77° |
| 2026-04-30 20:34 | 51.86961 | -0.39773 | 711 ft | 125 kts | 76° |
| 2026-04-30 20:35 | 51.87192 | -0.38413 | 540 ft | 125 kts | 76° |
| 2026-04-30 20:35 | 51.87412 | -0.37127 | 496 ft | 97 kts | 73° |
| 2026-04-30 20:35 | 51.87613 | -0.35988 | 496 ft | 25 kts | 71° |
| 2026-04-30 20:36 | 51.87738 | -0.35953 | 496 ft | 20 kts | 333° |
| 2026-04-30 20:36 | 51.87772 | -0.36155 | 496 ft | 23 kts | 257° |
| 2026-04-30 20:36 | 51.87653 | -0.36823 | 496 ft | 37 kts | 251° |
| 2026-04-30 20:37 | 51.87652 | -0.37115 | 496 ft | 7 kts | 16° |
| 2026-04-30 20:37 | 51.87683 | -0.37117 | 496 ft | 0 kts | 347° |